createdAt,value
2022-10-01T00:01:11.580Z,97023.97
2022-10-01T00:03:57.235Z,97025.38
2022-10-01T00:06:43.029Z,97019.47
2022-10-01T00:09:28.366Z,97020.50
2022-10-01T00:12:15.844Z,97025.13
2022-10-01T00:15:05.780Z,97031.00
2022-10-01T00:17:52.292Z,97031.38
2022-10-01T00:20:43.605Z,97036.25
2022-10-01T00:23:29.540Z,97035.84
2022-10-01T00:26:21.064Z,97033.59
2022-10-01T00:29:11.614Z,97034.00
2022-10-01T00:31:58.150Z,97033.38
2022-10-01T00:34:44.284Z,97030.53
2022-10-01T00:37:29.760Z,97030.13
2022-10-01T00:40:15.229Z,97023.44
2022-10-01T00:43:00.906Z,97025.69
2022-10-01T00:45:46.546Z,97016.56
2022-10-01T00:48:37.731Z,97023.00
2022-10-01T00:51:30.559Z,97023.22
2022-10-01T00:54:24.199Z,97017.13
2022-10-01T00:57:11.545Z,97024.38
2022-10-01T01:00:00.181Z,97021.94
2022-10-01T01:02:45.765Z,97018.47
2022-10-01T01:05:31.541Z,97015.00
2022-10-01T01:08:18.219Z,97013.94
2022-10-01T01:11:06.853Z,97004.41
2022-10-01T01:14:23.543Z,96994.88
2022-10-01T01:17:15.751Z,96993.44
2022-10-01T01:20:37.920Z,96985.72
2022-10-01T01:23:54.864Z,96980.81
2022-10-01T01:26:49.653Z,96990.91
2022-10-01T01:30:00.483Z,96990.50
2022-10-01T01:33:04.746Z,96984.78
2022-10-01T01:35:54.865Z,96981.97
2022-10-01T01:38:44.958Z,96984.59
2022-10-01T01:41:37.740Z,96980.75
2022-10-01T01:44:27.077Z,96982.13
2022-10-01T01:47:13.430Z,96975.84
2022-10-01T01:50:02.897Z,96962.44
2022-10-01T01:52:48.151Z,96963.06
2022-10-01T01:55:35.437Z,96972.53
2022-10-01T01:58:21.208Z,96966.47
2022-10-01T02:01:06.733Z,96958.34
2022-10-01T02:03:52.319Z,96961.59
2022-10-01T02:07:05.278Z,96962.38
2022-10-01T02:10:10.507Z,96958.94
2022-10-01T02:13:17.702Z,96956.91
2022-10-01T02:16:25.437Z,96959.75
2022-10-01T02:19:28.831Z,96954.69
2022-10-01T02:22:28.128Z,96962.81
2022-10-01T02:25:17.401Z,96968.09
2022-10-01T02:28:18.404Z,96970.50
2022-10-01T02:31:04.670Z,96965.25
2022-10-01T02:33:53.817Z,96961.59
2022-10-01T02:36:41.676Z,96962.38
2022-10-01T02:39:30.644Z,96959.56
2022-10-01T02:42:19.038Z,96955.91
2022-10-01T02:45:05.695Z,96950.41
2022-10-01T02:47:57.777Z,96943.28
2022-10-01T02:50:50.282Z,96945.13
2022-10-01T02:53:43.676Z,96941.69
2022-10-01T02:57:07.560Z,96937.22
2022-10-01T02:59:57.811Z,96944.53
2022-10-01T03:02:43.784Z,96938.09
2022-10-01T03:05:29.518Z,96945.78
2022-10-01T03:08:15.194Z,96942.91
2022-10-01T03:11:01.081Z,96938.47
2022-10-01T03:13:46.738Z,96938.03
2022-10-01T03:16:33.141Z,96930.94
2022-10-01T03:19:19.364Z,96933.13
2022-10-01T03:22:05.420Z,96937.16
2022-10-01T03:24:52.447Z,96934.34
2022-10-01T03:27:38.535Z,96932.03
2022-10-01T03:30:24.503Z,96925.75
2022-10-01T03:33:10.071Z,96936.66
2022-10-01T03:35:55.549Z,96923.28
2022-10-01T03:38:41.158Z,96927.31
2022-10-01T03:41:26.947Z,96926.88
2022-10-01T03:44:12.635Z,96927.25
2022-10-01T03:46:58.330Z,96926.00
2022-10-01T03:49:44.018Z,96918.47
2022-10-01T03:52:29.652Z,96921.47
2022-10-01T03:55:15.239Z,96923.09
2022-10-01T03:58:00.758Z,96929.16
2022-10-01T04:00:47.734Z,96930.78
2022-10-01T04:03:33.318Z,96923.47
2022-10-01T04:06:19.014Z,96917.16
2022-10-01T04:09:05.059Z,96920.38
2022-10-01T04:11:50.608Z,96929.72
2022-10-01T04:14:36.105Z,96925.22
2022-10-01T04:17:22.231Z,96917.91
2022-10-01T04:20:08.652Z,96910.56
2022-10-01T04:22:54.651Z,96908.53
2022-10-01T04:25:40.929Z,96911.94
2022-10-01T04:28:26.488Z,96899.34
2022-10-01T04:31:25.334Z,96897.53
2022-10-01T04:34:10.908Z,96896.94
2022-10-01T04:36:56.432Z,96893.13
2022-10-01T04:39:41.873Z,96887.50
2022-10-01T04:42:27.451Z,96880.81
2022-10-01T04:45:13.637Z,96879.41
2022-10-01T04:47:59.856Z,96876.22
2022-10-01T04:50:45.427Z,96886.16
2022-10-01T04:53:30.866Z,96880.09
2022-10-01T04:56:16.565Z,96885.00
2022-10-01T04:59:02.485Z,96875.38
2022-10-01T05:01:48.015Z,96872.47
2022-10-01T05:04:33.674Z,96884.06
2022-10-01T05:07:19.511Z,96885.31
2022-10-01T05:10:05.446Z,96882.31
2022-10-01T05:12:51.995Z,96879.50
2022-10-01T05:15:37.425Z,96879.38
2022-10-01T05:18:22.839Z,96882.63
2022-10-01T05:21:11.678Z,96874.13
2022-10-01T05:23:57.235Z,96878.22
2022-10-01T05:26:42.709Z,96880.25
2022-10-01T05:29:28.056Z,96880.50
2022-10-01T05:32:13.572Z,96874.63
2022-10-01T05:34:59.295Z,96870.59
2022-10-01T05:37:44.526Z,96875.84
2022-10-01T05:40:30.833Z,96875.06
2022-10-01T05:43:16.506Z,96879.09
2022-10-01T05:46:08.013Z,96878.88
2022-10-01T05:48:53.604Z,96879.47
2022-10-01T05:51:39.386Z,96876.84
2022-10-01T05:54:24.883Z,96887.59
2022-10-01T05:57:10.753Z,96894.44
2022-10-01T05:59:57.460Z,96888.75
2022-10-01T06:02:42.960Z,96895.81
2022-10-01T06:05:29.740Z,96895.97
2022-10-01T06:08:15.776Z,96896.72
2022-10-01T06:11:02.445Z,96897.47
2022-10-01T06:13:48.650Z,96900.25
2022-10-01T06:16:34.296Z,96897.78
2022-10-01T06:19:19.673Z,96898.50
2022-10-01T06:22:05.322Z,96906.97
2022-10-01T06:24:54.801Z,96907.28
2022-10-01T06:27:42.361Z,96906.53
2022-10-01T06:30:30.530Z,96904.56
2022-10-01T06:33:18.111Z,96907.41
2022-10-01T06:36:04.499Z,96908.19
2022-10-01T06:38:50.185Z,96910.81
2022-10-01T06:41:35.782Z,96906.50
2022-10-01T06:44:22.194Z,96907.59
2022-10-01T06:47:07.674Z,96906.03
2022-10-01T06:49:52.935Z,96901.38
2022-10-01T06:52:50.559Z,96907.53
2022-10-01T06:55:37.949Z,96899.34
2022-10-01T06:58:28.029Z,96895.75
2022-10-01T07:01:13.615Z,96894.88
2022-10-01T07:03:59.225Z,96887.81
2022-10-01T07:06:44.542Z,96890.47
2022-10-01T07:09:29.932Z,96883.19
2022-10-01T07:12:15.316Z,96879.66
2022-10-01T07:15:00.938Z,96886.19
2022-10-01T07:17:49.623Z,96883.13
2022-10-01T07:20:39.512Z,96875.28
2022-10-01T07:23:25.321Z,96869.53
2022-10-01T07:26:10.810Z,96865.66
2022-10-01T07:28:56.349Z,96856.91
2022-10-01T07:31:41.864Z,96854.34
2022-10-01T07:34:28.382Z,96846.09
2022-10-01T07:37:14.587Z,96846.66
2022-10-01T07:40:03.045Z,96846.66
2022-10-01T07:42:57.627Z,96850.91
2022-10-01T07:45:44.957Z,96858.09
2022-10-01T07:48:31.127Z,96854.63
2022-10-01T07:51:16.694Z,96851.72
2022-10-01T07:54:03.679Z,96854.38
2022-10-01T07:56:52.935Z,96850.41
2022-10-01T07:59:40.402Z,96840.34
2022-10-01T08:02:26.025Z,96833.16
2022-10-01T08:05:20.447Z,96826.00
2022-10-01T08:08:08.713Z,96819.88
2022-10-01T08:10:54.628Z,96819.31
2022-10-01T08:13:41.144Z,96821.44
2022-10-01T08:16:29.174Z,96823.53
2022-10-01T08:19:15.322Z,96819.78
2022-10-01T08:22:01.027Z,96814.19
2022-10-01T08:24:46.984Z,96815.22
2022-10-01T08:27:32.641Z,96805.91
2022-10-01T08:30:18.121Z,96807.22
2022-10-01T08:33:04.033Z,96804.00
2022-10-01T08:35:49.814Z,96811.16
2022-10-01T08:38:37.851Z,96812.22
2022-10-01T08:41:35.332Z,96810.59
2022-10-01T08:44:28.519Z,96812.44
2022-10-01T08:47:24.956Z,96808.75
2022-10-01T08:50:25.256Z,96801.03
2022-10-01T08:53:31.790Z,96804.25
2022-10-01T08:56:25.243Z,96804.00
2022-10-01T08:59:39.892Z,96803.19
2022-10-01T09:02:29.101Z,96809.56
2022-10-01T09:05:24.797Z,96805.84
2022-10-01T09:08:20.465Z,96806.91
2022-10-01T09:11:14.720Z,96794.09
2022-10-01T09:14:09.953Z,96795.16
2022-10-01T09:17:17.120Z,96785.59
2022-10-01T09:20:25.296Z,96787.72
2022-10-01T09:23:28.660Z,96789.78
2022-10-01T09:26:14.177Z,96785.00
2022-10-01T09:29:01.798Z,96780.19
2022-10-01T09:31:49.918Z,96782.84
2022-10-01T09:34:39.938Z,96789.75
2022-10-01T09:37:44.567Z,96781.78
2022-10-01T09:40:38.697Z,96793.44
2022-10-01T09:43:33.081Z,96791.84
2022-10-01T09:46:20.196Z,96783.34
2022-10-01T09:49:16.219Z,96792.34
2022-10-01T09:52:06.329Z,96783.03
2022-10-01T09:55:26.015Z,96785.44
2022-10-01T09:58:20.987Z,96786.47
2022-10-01T10:01:26.294Z,96776.91
2022-10-01T10:04:12.471Z,96791.78
2022-10-01T10:07:02.533Z,96783.53
2022-10-01T10:09:48.101Z,96776.34
2022-10-01T10:12:34.761Z,96789.63
2022-10-01T10:15:23.047Z,96793.88
2022-10-01T10:18:19.195Z,96790.69
2022-10-01T10:21:16.591Z,96793.56
2022-10-01T10:24:05.323Z,96792.00
2022-10-01T10:26:56.592Z,96793.84
2022-10-01T10:29:42.092Z,96793.03
2022-10-01T10:32:28.663Z,96789.34
2022-10-01T10:35:33.997Z,96789.88
2022-10-01T10:38:20.441Z,96780.59
2022-10-01T10:41:06.247Z,96787.03
2022-10-01T10:43:54.770Z,96782.56
2022-10-01T10:46:45.269Z,96777.81
2022-10-01T10:49:34.644Z,96766.41
2022-10-01T10:52:30.513Z,96774.38
2022-10-01T10:55:22.953Z,96773.06
2022-10-01T10:58:14.657Z,96744.38
2022-10-01T11:01:22.233Z,96755.88
2022-10-01T11:04:25.654Z,96760.19
2022-10-01T11:07:13.742Z,96754.38
2022-10-01T11:10:16.057Z,96734.78
2022-10-01T11:13:19.819Z,96739.59
2022-10-01T11:16:24.510Z,96736.50
2022-10-01T11:19:27.998Z,96746.38
2022-10-01T11:22:33.725Z,96740.00
2022-10-01T11:25:25.170Z,96735.19
2022-10-01T11:28:37.781Z,96724.78
2022-10-01T11:31:47.381Z,96736.94
2022-10-01T11:34:37.878Z,96727.03
2022-10-01T11:37:47.624Z,96728.56
2022-10-01T11:40:42.341Z,96729.28
2022-10-01T11:43:34.416Z,96733.69
2022-10-01T11:46:28.401Z,96728.03
2022-10-01T11:49:34.067Z,96731.63
2022-10-01T11:52:30.088Z,96723.50
2022-10-01T11:56:10.478Z,96711.69
2022-10-01T11:59:19.608Z,96708.16
2022-10-01T12:02:15.461Z,96707.53
2022-10-01T12:05:32.004Z,96707.13
2022-10-01T12:08:32.640Z,96695.09
2022-10-01T12:11:29.332Z,96705.63
2022-10-01T12:14:20.173Z,96710.88
2022-10-01T12:17:21.006Z,96703.91
2022-10-01T12:20:48.216Z,96703.03
2022-10-01T12:23:46.285Z,96708.25
2022-10-01T12:26:43.834Z,96705.03
2022-10-01T12:29:32.719Z,96698.31
2022-10-01T12:32:37.113Z,96715.72
2022-10-01T12:35:38.053Z,96705.31
2022-10-01T12:38:23.126Z,96698.34
2022-10-01T12:41:30.164Z,96693.19
2022-10-01T12:44:24.411Z,96695.78
2022-10-01T12:47:28.550Z,96687.50
2022-10-01T12:50:42.800Z,96699.63
2022-10-01T12:53:46.454Z,96694.81
2022-10-01T12:56:40.258Z,96704.03
2022-10-01T12:59:45.036Z,96701.63
2022-10-01T13:02:46.168Z,96709.00
2022-10-01T13:05:31.802Z,96711.13
2022-10-01T13:08:17.530Z,96711.00
2022-10-01T13:11:30.328Z,96725.00
2022-10-01T13:14:18.188Z,96720.88
2022-10-01T13:17:10.737Z,96717.13
2022-10-01T13:20:27.164Z,96727.03
2022-10-01T13:23:21.197Z,96740.19
2022-10-01T13:28:28.906Z,96729.19
2022-10-01T13:31:19.156Z,96728.88
2022-10-01T13:34:26.429Z,96693.88
2022-10-01T13:37:15.486Z,96678.50
2022-10-01T13:40:01.154Z,96704.38
2022-10-01T13:42:48.094Z,96717.03
2022-10-01T13:45:41.694Z,96722.34
2022-10-01T13:48:32.378Z,96736.38
2022-10-01T13:51:20.284Z,96725.81
2022-10-01T13:54:16.846Z,96731.63
2022-10-01T13:57:24.731Z,96723.47
2022-10-01T14:00:13.088Z,96734.41
2022-10-01T14:03:36.602Z,96733.13
2022-10-01T14:06:33.401Z,96737.94
2022-10-01T14:09:23.564Z,96736.44
2022-10-01T14:12:36.488Z,96737.78
2022-10-01T14:15:40.578Z,96738.13
2022-10-01T14:18:42.913Z,96736.84
2022-10-01T14:21:46.252Z,96748.22
2022-10-01T14:25:11.412Z,96735.00
2022-10-01T14:28:47.153Z,96734.75
2022-10-01T14:31:51.018Z,96729.22
2022-10-01T14:35:00.608Z,96739.31
2022-10-01T14:37:46.979Z,96734.38
2022-10-01T14:40:43.988Z,96726.75
2022-10-01T14:43:31.023Z,96731.56
2022-10-01T14:46:18.802Z,96725.78
2022-10-01T14:49:04.277Z,96727.16
2022-10-01T14:52:05.672Z,96720.03
2022-10-01T14:55:00.474Z,96724.25
2022-10-01T14:57:50.208Z,96708.94
2022-10-01T15:00:35.865Z,96717.47
2022-10-01T15:03:21.745Z,96721.22
2022-10-01T15:06:19.980Z,96725.47
2022-10-01T15:09:15.118Z,96722.81
2022-10-01T15:12:02.403Z,96715.44
2022-10-01T15:14:53.987Z,96721.88
2022-10-01T15:17:42.372Z,96717.94
2022-10-01T15:20:27.962Z,96726.19
2022-10-01T15:23:14.369Z,96723.09
2022-10-01T15:26:02.723Z,96729.50
2022-10-01T15:28:48.347Z,96724.75
2022-10-01T15:31:34.406Z,96718.44
2022-10-01T15:34:22.893Z,96725.31
2022-10-01T15:37:17.899Z,96721.63
2022-10-01T15:40:07.161Z,96715.28
2022-10-01T15:43:26.496Z,96712.63
2022-10-01T15:46:16.550Z,96728.28
2022-10-01T15:49:12.557Z,96728.06
2022-10-01T15:52:20.465Z,96734.41
2022-10-01T15:55:15.620Z,96731.75
2022-10-01T15:58:06.903Z,96715.84
2022-10-01T16:01:04.165Z,96737.59
2022-10-01T16:03:56.862Z,96731.25
2022-10-01T16:06:45.049Z,96722.81
2022-10-01T16:09:30.903Z,96722.81
2022-10-01T16:12:22.266Z,96719.13
2022-10-01T16:15:24.626Z,96727.88
2022-10-01T16:18:22.064Z,96714.38
2022-10-01T16:21:10.366Z,96722.09
2022-10-01T16:23:56.324Z,96728.19
2022-10-01T16:26:43.401Z,96731.41
2022-10-01T16:29:28.748Z,96728.50
2022-10-01T16:32:15.032Z,96737.03
2022-10-01T16:35:17.471Z,96740.22
2022-10-01T16:38:06.789Z,96756.69
2022-10-01T16:40:52.928Z,96754.84
2022-10-01T16:43:39.066Z,96752.19
2022-10-01T16:46:24.768Z,96749.31
2022-10-01T16:49:15.500Z,96748.28
2022-10-01T16:52:01.231Z,96751.72
2022-10-01T16:54:47.872Z,96761.75
2022-10-01T16:57:33.084Z,96758.56
2022-10-01T17:00:20.490Z,96772.84
2022-10-01T17:03:09.150Z,96763.28
2022-10-01T17:05:54.752Z,96776.53
2022-10-01T17:08:40.203Z,96771.25
2022-10-01T17:11:26.961Z,96786.91
2022-10-01T17:14:18.080Z,96780.81
2022-10-01T17:17:03.508Z,96788.25
2022-10-01T17:19:48.950Z,96795.16
2022-10-01T17:22:34.274Z,96799.44
2022-10-01T17:25:22.992Z,96800.78
2022-10-01T17:28:14.104Z,96804.81
2022-10-01T17:30:59.812Z,96808.03
2022-10-01T17:33:45.637Z,96810.44
2022-10-01T17:36:32.100Z,96820.56
2022-10-01T17:39:17.722Z,96820.78
2022-10-01T17:42:03.610Z,96825.53
2022-10-01T17:44:49.817Z,96828.41
2022-10-01T17:47:36.076Z,96839.25
2022-10-01T17:50:21.638Z,96841.13
2022-10-01T17:53:06.912Z,96835.81
2022-10-01T17:55:52.166Z,96851.72
2022-10-01T17:58:40.627Z,96835.81
2022-10-01T18:01:31.309Z,96838.72
2022-10-01T18:04:17.312Z,96837.91
2022-10-01T18:07:08.052Z,96848.03
2022-10-01T18:09:54.036Z,96843.53
2022-10-01T18:12:39.981Z,96843.06
2022-10-01T18:15:25.294Z,96845.47
2022-10-01T18:19:51.461Z,96846.25
2022-10-01T18:21:17.125Z,96851.81
2022-10-01T18:24:04.760Z,96858.47
2022-10-01T18:26:50.991Z,96858.22
2022-10-01T18:29:36.575Z,96854.78
2022-10-01T18:32:25.186Z,96866.75
2022-10-01T18:35:47.286Z,96864.88
2022-10-01T18:38:37.287Z,96879.88
2022-10-01T18:41:36.699Z,96874.06
2022-10-01T18:44:23.764Z,96868.03
2022-10-01T18:47:21.839Z,96860.88
2022-10-01T18:50:21.616Z,96872.09
2022-10-01T18:53:36.397Z,96871.03
2022-10-01T18:56:33.412Z,96888.88
2022-10-01T18:59:28.207Z,96886.78
2022-10-01T19:02:48.137Z,96883.09
2022-10-01T19:05:57.010Z,96895.31
2022-10-01T19:09:01.224Z,96892.16
2022-10-01T19:12:17.419Z,96890.31
2022-10-01T19:15:12.920Z,96886.63
2022-10-01T19:18:21.322Z,96884.50
2022-10-01T19:21:28.360Z,96896.50
2022-10-01T19:24:17.074Z,96902.38
2022-10-01T19:27:43.877Z,96902.69
2022-10-01T19:30:41.849Z,96899.78
2022-10-01T19:33:32.984Z,96914.91
2022-10-01T19:36:27.751Z,96925.78
2022-10-01T19:39:22.680Z,96923.91
2022-10-01T19:42:31.306Z,96944.56
2022-10-01T19:45:33.276Z,96950.38
2022-10-01T19:48:25.203Z,96942.34
2022-10-01T19:51:13.761Z,96944.50
2022-10-01T19:54:01.475Z,96945.97
2022-10-01T19:56:51.510Z,96953.81
2022-10-01T19:59:36.623Z,96954.31
2022-10-01T20:02:35.291Z,96948.06
2022-10-01T20:05:31.852Z,96945.59
2022-10-01T20:08:40.377Z,96943.66
2022-10-01T20:11:31.422Z,96935.28
2022-10-01T20:14:38.588Z,96936.25
2022-10-01T20:18:13.081Z,96958.88
2022-10-01T20:21:14.045Z,96955.78
2022-10-01T20:24:28.828Z,96971.34
2022-10-01T20:27:20.947Z,96977.59
2022-10-01T20:30:17.695Z,96987.06
2022-10-01T20:33:11.961Z,96995.25
2022-10-01T20:36:24.706Z,97002.31
2022-10-01T20:39:23.884Z,97000.94
2022-10-01T20:42:20.876Z,97001.38
2022-10-01T20:45:17.379Z,96997.13
2022-10-01T20:48:13.765Z,97009.00
2022-10-01T20:51:16.039Z,97010.25
2022-10-01T20:54:24.158Z,97005.78
2022-10-01T20:57:58.168Z,97011.09
2022-10-01T21:00:46.174Z,97027.44
2022-10-01T21:03:40.747Z,97030.66
2022-10-01T21:06:35.581Z,97036.75
2022-10-01T21:09:31.169Z,97041.25
2022-10-01T21:12:21.542Z,97050.25
2022-10-01T21:15:12.682Z,97059.22
2022-10-01T21:18:20.126Z,97062.91
2022-10-01T21:21:31.384Z,97055.78
2022-10-01T21:24:30.390Z,97066.94
2022-10-01T21:27:48.269Z,97070.41
2022-10-01T21:31:00.113Z,97071.44
2022-10-01T21:34:02.111Z,97081.00
2022-10-01T21:37:15.182Z,97098.16
2022-10-01T21:40:22.263Z,97102.38
2022-10-01T21:43:38.647Z,97106.91
2022-10-01T21:46:35.829Z,97099.88
2022-10-01T21:49:29.723Z,97100.81
2022-10-01T21:52:34.908Z,97118.19
2022-10-01T21:55:21.168Z,97129.72
2022-10-01T21:58:34.565Z,97130.94
2022-10-01T22:01:35.391Z,97125.28
2022-10-01T22:04:32.231Z,97130.03
2022-10-01T22:07:28.160Z,97132.31
2022-10-01T22:10:46.010Z,97142.31
2022-10-01T22:13:35.814Z,97158.44
2022-10-01T22:16:24.659Z,97157.31
2022-10-01T22:19:16.251Z,97161.78
2022-10-01T22:22:25.700Z,97166.84
2022-10-01T22:25:13.783Z,97166.84
2022-10-01T22:28:13.744Z,97177.41
2022-10-01T22:31:03.643Z,97174.78
2022-10-01T22:33:57.585Z,97179.03
2022-10-01T22:37:01.987Z,97175.34
2022-10-01T22:40:10.310Z,97190.81
2022-10-01T22:43:14.787Z,97190.34
2022-10-01T22:46:19.917Z,97195.19
2022-10-01T22:49:08.459Z,97199.44
2022-10-01T22:52:14.164Z,97201.06
2022-10-01T22:55:24.636Z,97197.38
2022-10-01T22:58:22.635Z,97206.16
2022-10-01T23:01:17.275Z,97209.59
2022-10-01T23:04:15.137Z,97209.16
2022-10-01T23:07:12.698Z,97217.88
2022-10-01T23:10:20.660Z,97211.56
2022-10-01T23:13:24.726Z,97215.00
2022-10-01T23:16:19.721Z,97223.97
2022-10-01T23:19:31.996Z,97228.72
2022-10-01T23:22:29.415Z,97239.31
2022-10-01T23:25:37.313Z,97237.09
2022-10-01T23:28:44.871Z,97239.63
2022-10-01T23:31:42.677Z,97243.97
2022-10-01T23:35:04.897Z,97249.94
2022-10-01T23:38:08.967Z,97253.03
2022-10-01T23:40:59.932Z,97255.09
2022-10-01T23:43:48.536Z,97268.19
2022-10-01T23:46:36.656Z,97270.94
2022-10-01T23:49:29.394Z,97280.34
2022-10-01T23:52:31.768Z,97276.53
2022-10-01T23:55:54.357Z,97284.69
2022-10-01T23:58:50.078Z,97285.94
